sensor_id;sensor_type;location;lat;lon;timestamp;P1;durP1;ratioP1;P2;durP2;ratioP2
78458;SDS011;67753;42.684;23.330;2023-05-10T00:01:25;6.47;;;5.97;;
78458;SDS011;67753;42.684;23.330;2023-05-10T00:03:28;6.07;;;5.47;;
78458;SDS011;67753;42.684;23.330;2023-05-10T00:05:30;6.10;;;5.60;;
78458;SDS011;67753;42.684;23.330;2023-05-10T00:07:32;6.60;;;6.10;;
78458;SDS011;67753;42.684;23.330;2023-05-10T00:09:33;7.57;;;6.97;;
78458;SDS011;67753;42.684;23.330;2023-05-10T00:11:35;6.40;;;5.97;;
78458;SDS011;67753;42.684;23.330;2023-05-10T00:13:37;7.70;;;7.00;;
78458;SDS011;67753;42.684;23.330;2023-05-10T00:15:39;6.73;;;6.20;;
78458;SDS011;67753;42.684;23.330;2023-05-10T00:17:41;8.07;;;7.30;;
78458;SDS011;67753;42.684;23.330;2023-05-10T00:19:44;7.13;;;6.60;;
78458;SDS011;67753;42.684;23.330;2023-05-10T00:21:46;6.60;;;6.10;;
78458;SDS011;67753;42.684;23.330;2023-05-10T00:23:48;7.80;;;7.20;;
78458;SDS011;67753;42.684;23.330;2023-05-10T00:25:50;9.00;;;8.30;;
78458;SDS011;67753;42.684;23.330;2023-05-10T00:27:52;8.67;;;8.00;;
78458;SDS011;67753;42.684;23.330;2023-05-10T00:29:55;8.80;;;8.00;;
78458;SDS011;67753;42.684;23.330;2023-05-10T00:31:57;8.30;;;7.60;;
78458;SDS011;67753;42.684;23.330;2023-05-10T00:33:58;8.67;;;7.97;;
78458;SDS011;67753;42.684;23.330;2023-05-10T00:36:03;9.00;;;8.30;;
78458;SDS011;67753;42.684;23.330;2023-05-10T00:38:07;9.07;;;8.27;;
78458;SDS011;67753;42.684;23.330;2023-05-10T00:40:10;8.93;;;8.23;;
78458;SDS011;67753;42.684;23.330;2023-05-10T00:42:14;9.57;;;8.87;;
78458;SDS011;67753;42.684;23.330;2023-05-10T00:44:15;9.90;;;9.10;;
78458;SDS011;67753;42.684;23.330;2023-05-10T00:46:18;9.10;;;8.37;;
78458;SDS011;67753;42.684;23.330;2023-05-10T00:48:21;9.70;;;8.90;;
78458;SDS011;67753;42.684;23.330;2023-05-10T00:50:24;9.67;;;8.93;;
78458;SDS011;67753;42.684;23.330;2023-05-10T00:52:27;9.57;;;8.77;;
78458;SDS011;67753;42.684;23.330;2023-05-10T00:54:29;9.50;;;8.60;;
78458;SDS011;67753;42.684;23.330;2023-05-10T00:56:31;10.00;;;9.20;;
78458;SDS011;67753;42.684;23.330;2023-05-10T00:58:33;9.47;;;8.67;;
78458;SDS011;67753;42.684;23.330;2023-05-10T01:00:35;9.40;;;8.63;;
78458;SDS011;67753;42.684;23.330;2023-05-10T01:02:40;10.23;;;9.07;;
78458;SDS011;67753;42.684;23.330;2023-05-10T01:04:43;10.40;;;9.60;;
78458;SDS011;67753;42.684;23.330;2023-05-10T01:06:45;10.40;;;9.40;;
78458;SDS011;67753;42.684;23.330;2023-05-10T01:08:48;9.70;;;9.00;;
78458;SDS011;67753;42.684;23.330;2023-05-10T01:10:50;10.17;;;9.37;;
78458;SDS011;67753;42.684;23.330;2023-05-10T01:12:52;10.73;;;9.83;;
78458;SDS011;67753;42.684;23.330;2023-05-10T01:14:54;9.80;;;9.00;;
78458;SDS011;67753;42.684;23.330;2023-05-10T01:16:57;10.77;;;9.83;;
78458;SDS011;67753;42.684;23.330;2023-05-10T01:18:59;10.67;;;9.80;;
78458;SDS011;67753;42.684;23.330;2023-05-10T01:21:09;9.67;;;8.87;;
78458;SDS011;67753;42.684;23.330;2023-05-10T01:23:29;8.87;;;8.27;;
78458;SDS011;67753;42.684;23.330;2023-05-10T01:25:51;8.93;;;8.33;;
78458;SDS011;67753;42.684;23.330;2023-05-10T01:30:46;9.27;;;8.57;;
78458;SDS011;67753;42.684;23.330;2023-05-10T01:33:20;9.73;;;9.03;;
78458;SDS011;67753;42.684;23.330;2023-05-10T01:35:31;8.77;;;8.17;;
78458;SDS011;67753;42.684;23.330;2023-05-10T01:37:40;9.57;;;8.87;;
78458;SDS011;67753;42.684;23.330;2023-05-10T01:39:47;8.20;;;7.60;;
78458;SDS011;67753;42.684;23.330;2023-05-10T01:41:56;8.53;;;7.93;;
78458;SDS011;67753;42.684;23.330;2023-05-10T01:44:09;9.23;;;8.53;;
78458;SDS011;67753;42.684;23.330;2023-05-10T01:46:22;9.20;;;8.40;;
78458;SDS011;67753;42.684;23.330;2023-05-10T01:48:33;8.70;;;7.90;;
78458;SDS011;67753;42.684;23.330;2023-05-10T01:50:35;9.30;;;8.60;;
78458;SDS011;67753;42.684;23.330;2023-05-10T01:52:41;8.63;;;7.93;;
78458;SDS011;67753;42.684;23.330;2023-05-10T01:54:48;8.97;;;8.20;;
78458;SDS011;67753;42.684;23.330;2023-05-10T01:56:55;9.43;;;8.63;;
78458;SDS011;67753;42.684;23.330;2023-05-10T01:59:01;8.33;;;7.73;;
78458;SDS011;67753;42.684;23.330;2023-05-10T02:01:10;8.13;;;7.53;;
78458;SDS011;67753;42.684;23.330;2023-05-10T02:03:12;7.80;;;7.20;;
78458;SDS011;67753;42.684;23.330;2023-05-10T02:05:17;7.17;;;6.67;;
78458;SDS011;67753;42.684;23.330;2023-05-10T02:07:21;8.03;;;7.33;;
78458;SDS011;67753;42.684;23.330;2023-05-10T02:09:24;7.83;;;7.23;;
78458;SDS011;67753;42.684;23.330;2023-05-10T02:11:28;6.93;;;6.33;;
78458;SDS011;67753;42.684;23.330;2023-05-10T02:13:32;7.70;;;7.03;;
78458;SDS011;67753;42.684;23.330;2023-05-10T02:15:39;6.40;;;6.00;;
78458;SDS011;67753;42.684;23.330;2023-05-10T02:17:42;6.23;;;5.73;;
78458;SDS011;67753;42.684;23.330;2023-05-10T02:19:45;6.23;;;5.83;;
78458;SDS011;67753;42.684;23.330;2023-05-10T02:21:50;6.13;;;5.63;;
78458;SDS011;67753;42.684;23.330;2023-05-10T02:23:53;6.23;;;5.83;;
78458;SDS011;67753;42.684;23.330;2023-05-10T02:25:56;5.33;;;4.97;;
78458;SDS011;67753;42.684;23.330;2023-05-10T02:28:02;6.43;;;6.03;;
78458;SDS011;67753;42.684;23.330;2023-05-10T02:30:06;6.67;;;6.17;;
78458;SDS011;67753;42.684;23.330;2023-05-10T02:32:09;5.63;;;5.13;;
78458;SDS011;67753;42.684;23.330;2023-05-10T02:34:12;6.37;;;5.87;;
78458;SDS011;67753;42.684;23.330;2023-05-10T02:36:14;6.40;;;5.90;;
78458;SDS011;67753;42.684;23.330;2023-05-10T02:38:19;7.43;;;6.00;;
78458;SDS011;67753;42.684;23.330;2023-05-10T02:40:24;5.77;;;5.37;;
78458;SDS011;67753;42.684;23.330;2023-05-10T02:42:29;5.93;;;5.53;;
78458;SDS011;67753;42.684;23.330;2023-05-10T02:44:34;6.10;;;5.60;;
78458;SDS011;67753;42.684;23.330;2023-05-10T02:46:37;6.33;;;5.83;;
78458;SDS011;67753;42.684;23.330;2023-05-10T02:48:39;6.60;;;6.00;;
78458;SDS011;67753;42.684;23.330;2023-05-10T02:50:42;7.90;;;6.43;;
78458;SDS011;67753;42.684;23.330;2023-05-10T02:52:47;6.27;;;5.53;;
78458;SDS011;67753;42.684;23.330;2023-05-10T02:54:55;5.20;;;4.70;;
78458;SDS011;67753;42.684;23.330;2023-05-10T02:57:00;5.63;;;5.23;;
78458;SDS011;67753;42.684;23.330;2023-05-10T02:59:05;6.10;;;5.50;;
78458;SDS011;67753;42.684;23.330;2023-05-10T03:01:07;6.07;;;5.67;;
78458;SDS011;67753;42.684;23.330;2023-05-10T03:03:09;5.67;;;5.27;;
78458;SDS011;67753;42.684;23.330;2023-05-10T03:05:11;6.23;;;5.63;;
78458;SDS011;67753;42.684;23.330;2023-05-10T03:07:13;5.83;;;5.40;;
78458;SDS011;67753;42.684;23.330;2023-05-10T03:09:15;7.20;;;6.00;;
78458;SDS011;67753;42.684;23.330;2023-05-10T03:11:27;6.20;;;5.70;;
78458;SDS011;67753;42.684;23.330;2023-05-10T03:13:36;6.47;;;5.87;;
78458;SDS011;67753;42.684;23.330;2023-05-10T03:15:47;6.00;;;5.50;;
78458;SDS011;67753;42.684;23.330;2023-05-10T03:17:57;6.47;;;5.97;;
78458;SDS011;67753;42.684;23.330;2023-05-10T03:20:06;6.67;;;5.97;;
78458;SDS011;67753;42.684;23.330;2023-05-10T03:22:12;6.30;;;5.80;;
78458;SDS011;67753;42.684;23.330;2023-05-10T03:24:23;6.90;;;6.20;;
78458;SDS011;67753;42.684;23.330;2023-05-10T03:26:31;6.37;;;5.87;;
78458;SDS011;67753;42.684;23.330;2023-05-10T03:28:34;6.40;;;5.80;;
78458;SDS011;67753;42.684;23.330;2023-05-10T03:30:36;6.53;;;6.03;;
78458;SDS011;67753;42.684;23.330;2023-05-10T03:32:40;7.20;;;6.50;;
78458;SDS011;67753;42.684;23.330;2023-05-10T03:34:42;6.93;;;6.33;;
78458;SDS011;67753;42.684;23.330;2023-05-10T03:36:45;7.17;;;6.57;;
78458;SDS011;67753;42.684;23.330;2023-05-10T03:38:47;6.70;;;6.20;;
78458;SDS011;67753;42.684;23.330;2023-05-10T03:40:50;6.67;;;6.00;;
78458;SDS011;67753;42.684;23.330;2023-05-10T03:42:54;6.60;;;6.10;;
78458;SDS011;67753;42.684;23.330;2023-05-10T03:44:56;6.20;;;5.70;;
78458;SDS011;67753;42.684;23.330;2023-05-10T03:46:58;6.00;;;5.50;;
78458;SDS011;67753;42.684;23.330;2023-05-10T03:49:00;6.13;;;5.53;;
78458;SDS011;67753;42.684;23.330;2023-05-10T03:51:03;6.77;;;6.17;;
78458;SDS011;67753;42.684;23.330;2023-05-10T03:53:04;6.93;;;6.33;;
78458;SDS011;67753;42.684;23.330;2023-05-10T03:55:06;6.63;;;6.03;;
78458;SDS011;67753;42.684;23.330;2023-05-10T03:57:08;6.50;;;6.00;;
78458;SDS011;67753;42.684;23.330;2023-05-10T03:59:12;6.63;;;5.97;;
78458;SDS011;67753;42.684;23.330;2023-05-10T04:01:14;6.33;;;5.83;;
78458;SDS011;67753;42.684;23.330;2023-05-10T04:03:16;6.63;;;5.90;;
78458;SDS011;67753;42.684;23.330;2023-05-10T04:05:18;6.47;;;5.77;;
78458;SDS011;67753;42.684;23.330;2023-05-10T04:07:20;6.70;;;6.20;;
78458;SDS011;67753;42.684;23.330;2023-05-10T04:09:26;8.43;;;5.90;;
78458;SDS011;67753;42.684;23.330;2023-05-10T04:11:29;6.23;;;5.67;;
78458;SDS011;67753;42.684;23.330;2023-05-10T04:13:31;6.80;;;6.07;;
78458;SDS011;67753;42.684;23.330;2023-05-10T04:15:34;6.63;;;6.03;;
78458;SDS011;67753;42.684;23.330;2023-05-10T04:17:36;6.50;;;5.90;;
78458;SDS011;67753;42.684;23.330;2023-05-10T04:19:38;6.80;;;6.30;;
78458;SDS011;67753;42.684;23.330;2023-05-10T04:21:40;6.83;;;6.23;;
78458;SDS011;67753;42.684;23.330;2023-05-10T04:23:42;7.07;;;6.37;;
78458;SDS011;67753;42.684;23.330;2023-05-10T04:25:44;7.00;;;6.30;;
78458;SDS011;67753;42.684;23.330;2023-05-10T04:27:46;7.70;;;6.97;;
78458;SDS011;67753;42.684;23.330;2023-05-10T04:29:48;7.70;;;7.00;;
78458;SDS011;67753;42.684;23.330;2023-05-10T04:31:53;6.60;;;6.10;;
78458;SDS011;67753;42.684;23.330;2023-05-10T04:33:56;7.30;;;6.70;;
78458;SDS011;67753;42.684;23.330;2023-05-10T04:35:58;7.63;;;6.93;;
78458;SDS011;67753;42.684;23.330;2023-05-10T04:38:00;7.10;;;6.50;;
78458;SDS011;67753;42.684;23.330;2023-05-10T04:40:02;6.80;;;6.30;;
78458;SDS011;67753;42.684;23.330;2023-05-10T04:42:06;7.00;;;6.47;;
78458;SDS011;67753;42.684;23.330;2023-05-10T04:44:08;7.50;;;6.77;;
78458;SDS011;67753;42.684;23.330;2023-05-10T04:46:10;7.43;;;6.73;;
78458;SDS011;67753;42.684;23.330;2023-05-10T04:48:13;7.23;;;6.63;;
78458;SDS011;67753;42.684;23.330;2023-05-10T04:50:15;7.07;;;6.40;;
78458;SDS011;67753;42.684;23.330;2023-05-10T04:52:17;6.93;;;6.40;;
78458;SDS011;67753;42.684;23.330;2023-05-10T04:54:19;6.67;;;6.10;;
78458;SDS011;67753;42.684;23.330;2023-05-10T04:56:21;7.47;;;6.77;;
78458;SDS011;67753;42.684;23.330;2023-05-10T04:58:23;7.20;;;6.03;;
78458;SDS011;67753;42.684;23.330;2023-05-10T05:00:25;7.13;;;6.53;;
78458;SDS011;67753;42.684;23.330;2023-05-10T05:02:26;7.10;;;6.50;;
78458;SDS011;67753;42.684;23.330;2023-05-10T05:04:30;7.10;;;6.50;;
78458;SDS011;67753;42.684;23.330;2023-05-10T05:06:32;7.17;;;6.57;;
78458;SDS011;67753;42.684;23.330;2023-05-10T05:08:34;7.43;;;6.83;;
78458;SDS011;67753;42.684;23.330;2023-05-10T05:10:36;7.83;;;7.10;;
78458;SDS011;67753;42.684;23.330;2023-05-10T05:12:38;55.97;;;45.50;;
78458;SDS011;67753;42.684;23.330;2023-05-10T05:14:40;19.93;;;15.97;;
78458;SDS011;67753;42.684;23.330;2023-05-10T05:16:42;18.63;;;16.53;;
78458;SDS011;67753;42.684;23.330;2023-05-10T05:18:43;18.90;;;16.87;;
78458;SDS011;67753;42.684;23.330;2023-05-10T05:20:46;25.97;;;21.43;;
78458;SDS011;67753;42.684;23.330;2023-05-10T05:22:49;36.17;;;27.73;;
78458;SDS011;67753;42.684;23.330;2023-05-10T05:24:50;13.70;;;12.37;;
78458;SDS011;67753;42.684;23.330;2023-05-10T05:26:52;8.23;;;7.53;;
78458;SDS011;67753;42.684;23.330;2023-05-10T05:28:54;9.90;;;7.10;;
78458;SDS011;67753;42.684;23.330;2023-05-10T05:30:56;7.93;;;7.27;;
78458;SDS011;67753;42.684;23.330;2023-05-10T05:32:58;8.30;;;7.37;;
78458;SDS011;67753;42.684;23.330;2023-05-10T05:35:00;9.30;;;8.50;;
78458;SDS011;67753;42.684;23.330;2023-05-10T05:37:03;8.67;;;7.73;;
78458;SDS011;67753;42.684;23.330;2023-05-10T05:39:05;8.70;;;7.90;;
78458;SDS011;67753;42.684;23.330;2023-05-10T05:41:07;8.60;;;7.80;;
78458;SDS011;67753;42.684;23.330;2023-05-10T05:43:09;8.53;;;7.67;;
78458;SDS011;67753;42.684;23.330;2023-05-10T05:45:11;9.20;;;8.20;;
78458;SDS011;67753;42.684;23.330;2023-05-10T05:47:14;9.67;;;8.80;;
78458;SDS011;67753;42.684;23.330;2023-05-10T05:49:16;9.43;;;8.63;;
78458;SDS011;67753;42.684;23.330;2023-05-10T05:51:18;9.47;;;8.53;;
78458;SDS011;67753;42.684;23.330;2023-05-10T05:54:18;9.97;;;8.50;;
78458;SDS011;67753;42.684;23.330;2023-05-10T05:56:19;8.83;;;8.00;;
78458;SDS011;67753;42.684;23.330;2023-05-10T05:58:25;9.37;;;8.57;;
78458;SDS011;67753;42.684;23.330;2023-05-10T06:00:29;10.70;;;9.07;;
78458;SDS011;67753;42.684;23.330;2023-05-10T06:02:31;9.60;;;8.77;;
78458;SDS011;67753;42.684;23.330;2023-05-10T06:04:33;9.03;;;8.33;;
78458;SDS011;67753;42.684;23.330;2023-05-10T06:06:35;9.17;;;8.37;;
78458;SDS011;67753;42.684;23.330;2023-05-10T06:08:37;8.47;;;7.70;;
78458;SDS011;67753;42.684;23.330;2023-05-10T06:10:40;10.00;;;9.10;;
78458;SDS011;67753;42.684;23.330;2023-05-10T06:12:42;9.33;;;8.53;;
78458;SDS011;67753;42.684;23.330;2023-05-10T06:14:45;9.37;;;8.47;;
78458;SDS011;67753;42.684;23.330;2023-05-10T06:16:47;9.53;;;8.73;;
78458;SDS011;67753;42.684;23.330;2023-05-10T06:18:49;9.40;;;8.40;;
78458;SDS011;67753;42.684;23.330;2023-05-10T06:20:51;10.90;;;9.90;;
78458;SDS011;67753;42.684;23.330;2023-05-10T06:22:54;9.03;;;8.23;;
78458;SDS011;67753;42.684;23.330;2023-05-10T06:24:56;19.97;;;17.27;;
78458;SDS011;67753;42.684;23.330;2023-05-10T06:26:59;24.67;;;21.50;;
78458;SDS011;67753;42.684;23.330;2023-05-10T06:29:02;24.50;;;19.83;;
78458;SDS011;67753;42.684;23.330;2023-05-10T06:31:04;17.77;;;15.93;;
78458;SDS011;67753;42.684;23.330;2023-05-10T06:33:06;11.00;;;10.07;;
78458;SDS011;67753;42.684;23.330;2023-05-10T06:35:08;16.87;;;14.00;;
78458;SDS011;67753;42.684;23.330;2023-05-10T06:37:11;18.20;;;16.03;;
78458;SDS011;67753;42.684;23.330;2023-05-10T06:39:12;13.63;;;12.30;;
78458;SDS011;67753;42.684;23.330;2023-05-10T06:41:14;8.23;;;7.47;;
78458;SDS011;67753;42.684;23.330;2023-05-10T06:43:18;8.27;;;7.57;;
78458;SDS011;67753;42.684;23.330;2023-05-10T06:45:19;9.00;;;8.00;;
78458;SDS011;67753;42.684;23.330;2023-05-10T06:47:21;8.57;;;7.77;;
78458;SDS011;67753;42.684;23.330;2023-05-10T06:49:23;10.90;;;9.00;;
78458;SDS011;67753;42.684;23.330;2023-05-10T06:51:25;37.73;;;27.47;;
78458;SDS011;67753;42.684;23.330;2023-05-10T06:53:27;29.00;;;22.60;;
78458;SDS011;67753;42.684;23.330;2023-05-10T06:55:29;59.30;;;43.87;;
78458;SDS011;67753;42.684;23.330;2023-05-10T06:57:31;34.33;;;28.00;;
78458;SDS011;67753;42.684;23.330;2023-05-10T06:59:34;19.53;;;14.27;;
78458;SDS011;67753;42.684;23.330;2023-05-10T07:01:37;20.60;;;16.50;;
78458;SDS011;67753;42.684;23.330;2023-05-10T07:03:39;25.63;;;21.00;;
78458;SDS011;67753;42.684;23.330;2023-05-10T07:05:41;9.40;;;8.50;;
78458;SDS011;67753;42.684;23.330;2023-05-10T07:07:42;10.30;;;7.93;;
78458;SDS011;67753;42.684;23.330;2023-05-10T07:09:44;7.87;;;7.17;;
78458;SDS011;67753;42.684;23.330;2023-05-10T07:11:46;8.60;;;7.80;;
78458;SDS011;67753;42.684;23.330;2023-05-10T07:13:49;8.57;;;7.70;;
78458;SDS011;67753;42.684;23.330;2023-05-10T07:15:52;10.33;;;9.20;;
78458;SDS011;67753;42.684;23.330;2023-05-10T07:17:54;9.27;;;8.37;;
78458;SDS011;67753;42.684;23.330;2023-05-10T07:19:56;8.67;;;8.07;;
78458;SDS011;67753;42.684;23.330;2023-05-10T07:21:58;9.80;;;7.87;;
78458;SDS011;67753;42.684;23.330;2023-05-10T07:24:00;9.27;;;8.33;;
78458;SDS011;67753;42.684;23.330;2023-05-10T07:26:03;9.63;;;8.73;;
78458;SDS011;67753;42.684;23.330;2023-05-10T07:28:05;9.10;;;8.30;;
78458;SDS011;67753;42.684;23.330;2023-05-10T07:30:08;8.67;;;7.77;;
78458;SDS011;67753;42.684;23.330;2023-05-10T07:32:12;9.23;;;8.43;;
78458;SDS011;67753;42.684;23.330;2023-05-10T07:34:13;9.50;;;8.37;;
78458;SDS011;67753;42.684;23.330;2023-05-10T07:36:15;9.47;;;8.47;;
78458;SDS011;67753;42.684;23.330;2023-05-10T07:38:17;10.47;;;8.73;;
78458;SDS011;67753;42.684;23.330;2023-05-10T07:40:19;10.67;;;9.47;;
78458;SDS011;67753;42.684;23.330;2023-05-10T07:42:20;10.37;;;9.47;;
78458;SDS011;67753;42.684;23.330;2023-05-10T07:44:22;10.03;;;9.03;;
78458;SDS011;67753;42.684;23.330;2023-05-10T07:46:24;10.07;;;9.20;;
78458;SDS011;67753;42.684;23.330;2023-05-10T07:48:28;10.30;;;9.40;;
78458;SDS011;67753;42.684;23.330;2023-05-10T07:50:30;11.77;;;10.70;;
78458;SDS011;67753;42.684;23.330;2023-05-10T07:52:32;13.27;;;11.97;;
78458;SDS011;67753;42.684;23.330;2023-05-10T07:54:34;10.67;;;9.77;;
78458;SDS011;67753;42.684;23.330;2023-05-10T07:56:36;12.13;;;10.37;;
78458;SDS011;67753;42.684;23.330;2023-05-10T07:58:38;11.40;;;10.30;;
78458;SDS011;67753;42.684;23.330;2023-05-10T08:00:39;11.00;;;10.10;;
78458;SDS011;67753;42.684;23.330;2023-05-10T08:02:41;10.10;;;9.23;;
78458;SDS011;67753;42.684;23.330;2023-05-10T08:04:45;12.63;;;11.33;;
78458;SDS011;67753;42.684;23.330;2023-05-10T08:06:47;11.80;;;10.30;;
78458;SDS011;67753;42.684;23.330;2023-05-10T08:08:49;10.83;;;9.83;;
78458;SDS011;67753;42.684;23.330;2023-05-10T08:10:52;10.37;;;9.43;;
78458;SDS011;67753;42.684;23.330;2023-05-10T08:12:53;11.17;;;10.07;;
78458;SDS011;67753;42.684;23.330;2023-05-10T08:14:55;10.30;;;9.40;;
78458;SDS011;67753;42.684;23.330;2023-05-10T08:16:58;10.27;;;9.37;;
78458;SDS011;67753;42.684;23.330;2023-05-10T08:19:00;10.60;;;9.60;;
78458;SDS011;67753;42.684;23.330;2023-05-10T08:21:04;12.47;;;9.77;;
78458;SDS011;67753;42.684;23.330;2023-05-10T08:23:06;13.37;;;9.43;;
78458;SDS011;67753;42.684;23.330;2023-05-10T08:25:08;8.90;;;8.20;;
78458;SDS011;67753;42.684;23.330;2023-05-10T08:27:10;8.93;;;8.23;;
78458;SDS011;67753;42.684;23.330;2023-05-10T08:29:12;10.53;;;9.53;;
78458;SDS011;67753;42.684;23.330;2023-05-10T08:31:15;10.60;;;9.70;;
78458;SDS011;67753;42.684;23.330;2023-05-10T08:33:18;9.43;;;8.73;;
78458;SDS011;67753;42.684;23.330;2023-05-10T08:35:20;9.07;;;8.33;;
78458;SDS011;67753;42.684;23.330;2023-05-10T08:37:23;10.40;;;9.50;;
78458;SDS011;67753;42.684;23.330;2023-05-10T08:39:25;9.20;;;8.50;;
78458;SDS011;67753;42.684;23.330;2023-05-10T08:41:27;10.70;;;9.80;;
78458;SDS011;67753;42.684;23.330;2023-05-10T08:43:32;10.10;;;9.20;;
78458;SDS011;67753;42.684;23.330;2023-05-10T08:45:36;10.63;;;9.73;;
78458;SDS011;67753;42.684;23.330;2023-05-10T08:47:39;11.17;;;10.23;;
78458;SDS011;67753;42.684;23.330;2023-05-10T08:49:41;10.10;;;9.23;;
78458;SDS011;67753;42.684;23.330;2023-05-10T08:51:47;10.27;;;9.43;;
78458;SDS011;67753;42.684;23.330;2023-05-10T08:53:56;9.63;;;8.93;;
78458;SDS011;67753;42.684;23.330;2023-05-10T08:55:58;9.53;;;8.67;;
78458;SDS011;67753;42.684;23.330;2023-05-10T08:58:02;9.47;;;8.67;;
78458;SDS011;67753;42.684;23.330;2023-05-10T09:00:05;9.53;;;8.83;;
78458;SDS011;67753;42.684;23.330;2023-05-10T09:02:09;10.40;;;9.60;;
78458;SDS011;67753;42.684;23.330;2023-05-10T09:04:12;9.93;;;9.13;;
78458;SDS011;67753;42.684;23.330;2023-05-10T09:06:14;10.40;;;9.40;;
78458;SDS011;67753;42.684;23.330;2023-05-10T09:08:16;9.57;;;8.77;;
78458;SDS011;67753;42.684;23.330;2023-05-10T09:10:22;9.97;;;9.17;;
78458;SDS011;67753;42.684;23.330;2023-05-10T09:12:27;10.67;;;9.67;;
78458;SDS011;67753;42.684;23.330;2023-05-10T09:14:29;10.63;;;9.80;;
78458;SDS011;67753;42.684;23.330;2023-05-10T09:16:32;11.13;;;10.13;;
78458;SDS011;67753;42.684;23.330;2023-05-10T09:18:33;11.30;;;10.20;;
78458;SDS011;67753;42.684;23.330;2023-05-10T09:20:35;10.60;;;9.63;;
78458;SDS011;67753;42.684;23.330;2023-05-10T09:22:37;11.90;;;10.80;;
78458;SDS011;67753;42.684;23.330;2023-05-10T09:24:40;12.00;;;11.10;;
78458;SDS011;67753;42.684;23.330;2023-05-10T09:26:48;12.10;;;11.00;;
78458;SDS011;67753;42.684;23.330;2023-05-10T09:28:51;11.30;;;10.27;;
78458;SDS011;67753;42.684;23.330;2023-05-10T09:30:54;10.97;;;9.70;;
78458;SDS011;67753;42.684;23.330;2023-05-10T09:32:57;11.10;;;10.10;;
78458;SDS011;67753;42.684;23.330;2023-05-10T09:35:05;12.23;;;11.03;;
78458;SDS011;67753;42.684;23.330;2023-05-10T09:37:08;11.07;;;10.13;;
78458;SDS011;67753;42.684;23.330;2023-05-10T09:39:10;12.50;;;11.37;;
78458;SDS011;67753;42.684;23.330;2023-05-10T09:41:16;11.50;;;10.33;;
78458;SDS011;67753;42.684;23.330;2023-05-10T09:43:21;12.93;;;11.83;;
78458;SDS011;67753;42.684;23.330;2023-05-10T09:45:23;12.43;;;11.43;;
78458;SDS011;67753;42.684;23.330;2023-05-10T09:47:27;12.57;;;11.33;;
78458;SDS011;67753;42.684;23.330;2023-05-10T09:49:29;14.80;;;13.03;;
78458;SDS011;67753;42.684;23.330;2023-05-10T09:51:31;37.67;;;32.47;;
78458;SDS011;67753;42.684;23.330;2023-05-10T09:53:33;65.77;;;52.63;;
78458;SDS011;67753;42.684;23.330;2023-05-10T09:55:39;40.53;;;33.73;;
78458;SDS011;67753;42.684;23.330;2023-05-10T09:57:41;12.47;;;11.37;;
78458;SDS011;67753;42.684;23.330;2023-05-10T09:59:45;11.63;;;10.63;;
78458;SDS011;67753;42.684;23.330;2023-05-10T10:01:49;11.70;;;10.80;;
78458;SDS011;67753;42.684;23.330;2023-05-10T10:03:52;9.10;;;8.30;;
78458;SDS011;67753;42.684;23.330;2023-05-10T10:05:54;9.80;;;9.07;;
78458;SDS011;67753;42.684;23.330;2023-05-10T10:07:56;10.40;;;9.50;;
78458;SDS011;67753;42.684;23.330;2023-05-10T10:09:59;10.57;;;9.67;;
78458;SDS011;67753;42.684;23.330;2023-05-10T10:12:02;10.30;;;9.50;;
78458;SDS011;67753;42.684;23.330;2023-05-10T10:14:04;10.33;;;9.43;;
78458;SDS011;67753;42.684;23.330;2023-05-10T10:16:09;11.00;;;10.10;;
78458;SDS011;67753;42.684;23.330;2023-05-10T10:18:12;11.53;;;10.47;;
78458;SDS011;67753;42.684;23.330;2023-05-10T10:20:15;11.63;;;10.57;;
78458;SDS011;67753;42.684;23.330;2023-05-10T10:22:17;11.80;;;10.67;;
78458;SDS011;67753;42.684;23.330;2023-05-10T10:24:19;11.33;;;10.33;;
78458;SDS011;67753;42.684;23.330;2023-05-10T10:26:21;11.17;;;10.17;;
78458;SDS011;67753;42.684;23.330;2023-05-10T10:28:26;10.67;;;9.67;;
78458;SDS011;67753;42.684;23.330;2023-05-10T10:30:39;10.70;;;9.90;;
78458;SDS011;67753;42.684;23.330;2023-05-10T10:32:53;10.40;;;9.60;;
78458;SDS011;67753;42.684;23.330;2023-05-10T10:35:08;10.03;;;9.13;;
78458;SDS011;67753;42.684;23.330;2023-05-10T10:37:11;9.67;;;8.80;;
78458;SDS011;67753;42.684;23.330;2023-05-10T10:39:14;10.90;;;9.80;;
78458;SDS011;67753;42.684;23.330;2023-05-10T10:41:27;9.07;;;8.27;;
78458;SDS011;67753;42.684;23.330;2023-05-10T10:43:30;10.57;;;9.67;;
78458;SDS011;67753;42.684;23.330;2023-05-10T10:45:32;8.47;;;7.83;;
78458;SDS011;67753;42.684;23.330;2023-05-10T10:47:34;9.13;;;8.43;;
78458;SDS011;67753;42.684;23.330;2023-05-10T10:49:42;8.23;;;7.50;;
78458;SDS011;67753;42.684;23.330;2023-05-10T10:54:26;10.03;;;9.03;;
78458;SDS011;67753;42.684;23.330;2023-05-10T10:56:29;8.37;;;7.70;;
78458;SDS011;67753;42.684;23.330;2023-05-10T10:58:31;9.40;;;7.67;;
78458;SDS011;67753;42.684;23.330;2023-05-10T11:00:34;8.47;;;7.87;;
78458;SDS011;67753;42.684;23.330;2023-05-10T11:02:43;9.83;;;8.67;;
78458;SDS011;67753;42.684;23.330;2023-05-10T11:04:49;12.97;;;11.43;;
78458;SDS011;67753;42.684;23.330;2023-05-10T11:06:51;8.63;;;7.90;;
78458;SDS011;67753;42.684;23.330;2023-05-10T11:09:19;8.80;;;8.00;;
78458;SDS011;67753;42.684;23.330;2023-05-10T11:11:20;10.40;;;9.50;;
78458;SDS011;67753;42.684;23.330;2023-05-10T11:13:27;8.87;;;7.87;;
78458;SDS011;67753;42.684;23.330;2023-05-10T11:15:30;8.07;;;7.37;;
78458;SDS011;67753;42.684;23.330;2023-05-10T11:17:34;8.43;;;7.73;;
78458;SDS011;67753;42.684;23.330;2023-05-10T11:19:36;9.73;;;7.67;;
78458;SDS011;67753;42.684;23.330;2023-05-10T11:21:45;7.33;;;6.53;;
78458;SDS011;67753;42.684;23.330;2023-05-10T11:23:49;8.73;;;7.83;;
78458;SDS011;67753;42.684;23.330;2023-05-10T11:25:52;64.57;;;49.40;;
78458;SDS011;67753;42.684;23.330;2023-05-10T11:27:55;23.83;;;20.30;;
78458;SDS011;67753;42.684;23.330;2023-05-10T11:29:57;20.43;;;16.87;;
78458;SDS011;67753;42.684;23.330;2023-05-10T11:31:59;13.40;;;12.03;;
78458;SDS011;67753;42.684;23.330;2023-05-10T11:34:01;11.27;;;10.27;;
78458;SDS011;67753;42.684;23.330;2023-05-10T11:36:03;38.00;;;30.10;;
78458;SDS011;67753;42.684;23.330;2023-05-10T11:38:07;37.67;;;32.07;;
78458;SDS011;67753;42.684;23.330;2023-05-10T11:40:11;23.87;;;19.73;;
78458;SDS011;67753;42.684;23.330;2023-05-10T11:42:13;21.33;;;17.67;;
78458;SDS011;67753;42.684;23.330;2023-05-10T11:44:15;24.93;;;19.20;;
78458;SDS011;67753;42.684;23.330;2023-05-10T11:46:18;14.63;;;13.13;;
78458;SDS011;67753;42.684;23.330;2023-05-10T11:48:21;9.67;;;8.67;;
78458;SDS011;67753;42.684;23.330;2023-05-10T11:50:24;14.33;;;12.83;;
78458;SDS011;67753;42.684;23.330;2023-05-10T11:52:26;13.37;;;11.20;;
78458;SDS011;67753;42.684;23.330;2023-05-10T11:54:29;8.67;;;7.80;;
78458;SDS011;67753;42.684;23.330;2023-05-10T11:56:32;11.33;;;10.27;;
78458;SDS011;67753;42.684;23.330;2023-05-10T11:58:34;12.53;;;9.67;;
78458;SDS011;67753;42.684;23.330;2023-05-10T12:00:37;8.80;;;8.03;;
78458;SDS011;67753;42.684;23.330;2023-05-10T12:02:39;16.43;;;12.53;;
78458;SDS011;67753;42.684;23.330;2023-05-10T12:04:41;9.17;;;8.33;;
78458;SDS011;67753;42.684;23.330;2023-05-10T12:06:43;8.07;;;7.47;;
78458;SDS011;67753;42.684;23.330;2023-05-10T12:08:47;7.27;;;6.67;;
78458;SDS011;67753;42.684;23.330;2023-05-10T12:11:03;7.93;;;7.27;;
78458;SDS011;67753;42.684;23.330;2023-05-10T12:13:06;8.73;;;7.90;;